sensor_id;sensor_type;location;lat;lon;timestamp;P1;durP1;ratioP1;P2;durP2;ratioP2
20758;SDS011;10539;53.686;9.158;2023-04-08T00:02:00;23.40;;;10.17;;
20758;SDS011;10539;53.686;9.158;2023-04-08T00:04:26;20.10;;;9.20;;
20758;SDS011;10539;53.686;9.158;2023-04-08T00:06:52;23.57;;;10.20;;
20758;SDS011;10539;53.686;9.158;2023-04-08T00:09:18;21.13;;;10.03;;
20758;SDS011;10539;53.686;9.158;2023-04-08T00:11:43;18.40;;;8.33;;
20758;SDS011;10539;53.686;9.158;2023-04-08T00:14:09;25.80;;;11.27;;
20758;SDS011;10539;53.686;9.158;2023-04-08T00:16:35;27.77;;;11.40;;
20758;SDS011;10539;53.686;9.158;2023-04-08T00:19:00;20.97;;;9.97;;
20758;SDS011;10539;53.686;9.158;2023-04-08T00:21:26;23.50;;;12.07;;
20758;SDS011;10539;53.686;9.158;2023-04-08T00:23:52;25.27;;;10.03;;
20758;SDS011;10539;53.686;9.158;2023-04-08T00:26:18;22.27;;;9.60;;
20758;SDS011;10539;53.686;9.158;2023-04-08T00:28:44;31.47;;;12.30;;
20758;SDS011;10539;53.686;9.158;2023-04-08T00:31:10;26.20;;;10.27;;
20758;SDS011;10539;53.686;9.158;2023-04-08T00:33:36;24.17;;;11.00;;
20758;SDS011;10539;53.686;9.158;2023-04-08T00:36:02;24.47;;;10.90;;
20758;SDS011;10539;53.686;9.158;2023-04-08T00:38:28;25.17;;;10.73;;
20758;SDS011;10539;53.686;9.158;2023-04-08T00:40:54;27.40;;;11.47;;
20758;SDS011;10539;53.686;9.158;2023-04-08T00:43:20;26.53;;;11.80;;
20758;SDS011;10539;53.686;9.158;2023-04-08T00:45:47;29.20;;;12.60;;
20758;SDS011;10539;53.686;9.158;2023-04-08T00:48:13;28.53;;;13.63;;
20758;SDS011;10539;53.686;9.158;2023-04-08T00:50:38;25.40;;;12.10;;
20758;SDS011;10539;53.686;9.158;2023-04-08T00:53:04;27.17;;;12.20;;
20758;SDS011;10539;53.686;9.158;2023-04-08T00:55:30;27.80;;;12.53;;
20758;SDS011;10539;53.686;9.158;2023-04-08T00:57:56;28.47;;;12.33;;
20758;SDS011;10539;53.686;9.158;2023-04-08T01:00:22;27.07;;;13.23;;
20758;SDS011;10539;53.686;9.158;2023-04-08T01:05:35;25.80;;;11.27;;
20758;SDS011;10539;53.686;9.158;2023-04-08T01:08:14;31.47;;;12.27;;
20758;SDS011;10539;53.686;9.158;2023-04-08T01:10:42;28.00;;;12.63;;
20758;SDS011;10539;53.686;9.158;2023-04-08T01:13:13;28.20;;;12.97;;
20758;SDS011;10539;53.686;9.158;2023-04-08T01:15:42;29.20;;;13.63;;
20758;SDS011;10539;53.686;9.158;2023-04-08T01:18:11;30.27;;;11.90;;
20758;SDS011;10539;53.686;9.158;2023-04-08T01:20:39;26.27;;;11.70;;
20758;SDS011;10539;53.686;9.158;2023-04-08T01:23:23;28.17;;;12.17;;
20758;SDS011;10539;53.686;9.158;2023-04-08T01:26:00;27.03;;;12.17;;
20758;SDS011;10539;53.686;9.158;2023-04-08T01:28:27;27.77;;;12.93;;
20758;SDS011;10539;53.686;9.158;2023-04-08T01:30:55;27.70;;;12.73;;
20758;SDS011;10539;53.686;9.158;2023-04-08T01:33:23;31.37;;;13.67;;
20758;SDS011;10539;53.686;9.158;2023-04-08T01:35:51;30.00;;;13.90;;
20758;SDS011;10539;53.686;9.158;2023-04-08T01:38:19;32.33;;;12.87;;
20758;SDS011;10539;53.686;9.158;2023-04-08T01:40:47;32.20;;;13.17;;
20758;SDS011;10539;53.686;9.158;2023-04-08T01:43:15;26.87;;;13.30;;
20758;SDS011;10539;53.686;9.158;2023-04-08T01:45:43;31.80;;;13.90;;
20758;SDS011;10539;53.686;9.158;2023-04-08T01:48:14;34.33;;;14.47;;
20758;SDS011;10539;53.686;9.158;2023-04-08T01:50:41;26.40;;;12.77;;
20758;SDS011;10539;53.686;9.158;2023-04-08T01:53:09;30.17;;;13.30;;
20758;SDS011;10539;53.686;9.158;2023-04-08T01:55:37;30.93;;;12.93;;
20758;SDS011;10539;53.686;9.158;2023-04-08T01:58:06;29.53;;;13.53;;
20758;SDS011;10539;53.686;9.158;2023-04-08T02:00:33;28.53;;;12.90;;
20758;SDS011;10539;53.686;9.158;2023-04-08T02:03:01;29.40;;;14.03;;
20758;SDS011;10539;53.686;9.158;2023-04-08T02:05:27;28.20;;;13.90;;
20758;SDS011;10539;53.686;9.158;2023-04-08T02:07:53;29.20;;;12.50;;
20758;SDS011;10539;53.686;9.158;2023-04-08T02:10:19;31.37;;;14.13;;
20758;SDS011;10539;53.686;9.158;2023-04-08T02:12:45;30.87;;;13.93;;
20758;SDS011;10539;53.686;9.158;2023-04-08T02:15:11;36.43;;;14.20;;
20758;SDS011;10539;53.686;9.158;2023-04-08T02:17:46;34.17;;;14.70;;
20758;SDS011;10539;53.686;9.158;2023-04-08T02:23:02;35.13;;;13.93;;
20758;SDS011;10539;53.686;9.158;2023-04-08T02:25:36;31.53;;;15.03;;
20758;SDS011;10539;53.686;9.158;2023-04-08T02:28:05;31.83;;;14.50;;
20758;SDS011;10539;53.686;9.158;2023-04-08T02:30:34;38.03;;;15.47;;
20758;SDS011;10539;53.686;9.158;2023-04-08T02:33:02;32.90;;;14.67;;
20758;SDS011;10539;53.686;9.158;2023-04-08T02:35:29;31.83;;;15.53;;
20758;SDS011;10539;53.686;9.158;2023-04-08T02:37:56;33.80;;;15.50;;
20758;SDS011;10539;53.686;9.158;2023-04-08T02:40:22;32.10;;;13.90;;
20758;SDS011;10539;53.686;9.158;2023-04-08T02:42:49;31.43;;;13.37;;
20758;SDS011;10539;53.686;9.158;2023-04-08T02:45:15;32.33;;;14.03;;
20758;SDS011;10539;53.686;9.158;2023-04-08T02:47:41;31.90;;;14.03;;
20758;SDS011;10539;53.686;9.158;2023-04-08T02:50:07;33.03;;;14.07;;
20758;SDS011;10539;53.686;9.158;2023-04-08T02:52:34;32.10;;;14.03;;
20758;SDS011;10539;53.686;9.158;2023-04-08T02:55:00;35.50;;;15.37;;
20758;SDS011;10539;53.686;9.158;2023-04-08T02:57:26;28.67;;;13.47;;
20758;SDS011;10539;53.686;9.158;2023-04-08T02:59:52;30.00;;;13.07;;
20758;SDS011;10539;53.686;9.158;2023-04-08T03:02:18;31.60;;;15.87;;
20758;SDS011;10539;53.686;9.158;2023-04-08T03:04:43;32.77;;;15.00;;
20758;SDS011;10539;53.686;9.158;2023-04-08T03:07:09;29.17;;;14.33;;
20758;SDS011;10539;53.686;9.158;2023-04-08T03:09:35;29.30;;;13.00;;
20758;SDS011;10539;53.686;9.158;2023-04-08T03:12:01;26.23;;;12.97;;
20758;SDS011;10539;53.686;9.158;2023-04-08T03:14:27;31.30;;;13.27;;
20758;SDS011;10539;53.686;9.158;2023-04-08T03:16:52;25.47;;;12.63;;
20758;SDS011;10539;53.686;9.158;2023-04-08T03:19:18;26.33;;;13.87;;
20758;SDS011;10539;53.686;9.158;2023-04-08T03:21:43;27.77;;;12.97;;
20758;SDS011;10539;53.686;9.158;2023-04-08T03:24:10;28.13;;;13.50;;
20758;SDS011;10539;53.686;9.158;2023-04-08T03:26:36;28.03;;;12.37;;
20758;SDS011;10539;53.686;9.158;2023-04-08T03:29:01;27.90;;;13.83;;
20758;SDS011;10539;53.686;9.158;2023-04-08T03:31:28;29.10;;;14.17;;
20758;SDS011;10539;53.686;9.158;2023-04-08T03:33:53;27.10;;;13.47;;
20758;SDS011;10539;53.686;9.158;2023-04-08T03:36:19;30.30;;;12.63;;
20758;SDS011;10539;53.686;9.158;2023-04-08T03:38:45;33.33;;;14.47;;
20758;SDS011;10539;53.686;9.158;2023-04-08T03:41:10;29.50;;;13.93;;
20758;SDS011;10539;53.686;9.158;2023-04-08T03:43:36;29.53;;;13.27;;
20758;SDS011;10539;53.686;9.158;2023-04-08T03:46:01;30.60;;;13.13;;
20758;SDS011;10539;53.686;9.158;2023-04-08T03:48:27;31.20;;;14.03;;
20758;SDS011;10539;53.686;9.158;2023-04-08T03:50:53;31.70;;;12.90;;
20758;SDS011;10539;53.686;9.158;2023-04-08T03:53:19;31.77;;;13.97;;
20758;SDS011;10539;53.686;9.158;2023-04-08T03:55:44;32.00;;;14.57;;
20758;SDS011;10539;53.686;9.158;2023-04-08T03:58:12;31.83;;;14.00;;
20758;SDS011;10539;53.686;9.158;2023-04-08T04:00:38;30.77;;;14.33;;
20758;SDS011;10539;53.686;9.158;2023-04-08T04:03:04;41.90;;;16.57;;
20758;SDS011;10539;53.686;9.158;2023-04-08T04:05:30;33.50;;;17.23;;
20758;SDS011;10539;53.686;9.158;2023-04-08T04:07:56;31.10;;;14.77;;
20758;SDS011;10539;53.686;9.158;2023-04-08T04:10:22;36.87;;;16.30;;
20758;SDS011;10539;53.686;9.158;2023-04-08T04:12:48;31.13;;;15.37;;
20758;SDS011;10539;53.686;9.158;2023-04-08T04:15:14;33.13;;;15.57;;
20758;SDS011;10539;53.686;9.158;2023-04-08T04:17:40;30.43;;;14.10;;
20758;SDS011;10539;53.686;9.158;2023-04-08T04:20:06;34.53;;;16.47;;
20758;SDS011;10539;53.686;9.158;2023-04-08T04:22:32;33.73;;;15.87;;
20758;SDS011;10539;53.686;9.158;2023-04-08T04:24:57;29.60;;;14.97;;
20758;SDS011;10539;53.686;9.158;2023-04-08T04:27:23;30.00;;;14.90;;
20758;SDS011;10539;53.686;9.158;2023-04-08T04:29:49;34.20;;;16.37;;
20758;SDS011;10539;53.686;9.158;2023-04-08T04:32:15;31.17;;;15.47;;
20758;SDS011;10539;53.686;9.158;2023-04-08T04:34:40;36.70;;;15.67;;
20758;SDS011;10539;53.686;9.158;2023-04-08T04:37:06;29.77;;;15.20;;
20758;SDS011;10539;53.686;9.158;2023-04-08T04:39:32;29.57;;;14.43;;
20758;SDS011;10539;53.686;9.158;2023-04-08T04:41:58;27.37;;;13.60;;
20758;SDS011;10539;53.686;9.158;2023-04-08T04:44:24;28.33;;;14.30;;
20758;SDS011;10539;53.686;9.158;2023-04-08T04:46:49;27.00;;;12.37;;
20758;SDS011;10539;53.686;9.158;2023-04-08T04:49:15;23.07;;;10.73;;
20758;SDS011;10539;53.686;9.158;2023-04-08T04:51:41;26.30;;;12.97;;
20758;SDS011;10539;53.686;9.158;2023-04-08T04:54:07;22.93;;;12.50;;
20758;SDS011;10539;53.686;9.158;2023-04-08T04:56:32;24.33;;;11.93;;
20758;SDS011;10539;53.686;9.158;2023-04-08T04:58:58;25.67;;;13.07;;
20758;SDS011;10539;53.686;9.158;2023-04-08T05:01:24;28.67;;;14.13;;
20758;SDS011;10539;53.686;9.158;2023-04-08T05:03:50;31.03;;;16.00;;
20758;SDS011;10539;53.686;9.158;2023-04-08T05:06:16;26.57;;;14.13;;
20758;SDS011;10539;53.686;9.158;2023-04-08T05:08:42;27.33;;;13.37;;
20758;SDS011;10539;53.686;9.158;2023-04-08T05:11:08;27.17;;;15.03;;
20758;SDS011;10539;53.686;9.158;2023-04-08T05:13:34;25.60;;;13.53;;
20758;SDS011;10539;53.686;9.158;2023-04-08T05:16:00;25.43;;;13.03;;
20758;SDS011;10539;53.686;9.158;2023-04-08T05:18:26;30.93;;;15.83;;
20758;SDS011;10539;53.686;9.158;2023-04-08T05:20:51;30.00;;;13.87;;
20758;SDS011;10539;53.686;9.158;2023-04-08T05:23:17;31.60;;;14.30;;
20758;SDS011;10539;53.686;9.158;2023-04-08T05:25:43;32.20;;;15.10;;
20758;SDS011;10539;53.686;9.158;2023-04-08T05:28:09;29.83;;;14.97;;
20758;SDS011;10539;53.686;9.158;2023-04-08T05:30:34;29.83;;;15.97;;
20758;SDS011;10539;53.686;9.158;2023-04-08T05:33:00;27.80;;;15.27;;
20758;SDS011;10539;53.686;9.158;2023-04-08T05:35:26;29.90;;;14.63;;
20758;SDS011;10539;53.686;9.158;2023-04-08T05:37:52;28.30;;;15.47;;
20758;SDS011;10539;53.686;9.158;2023-04-08T05:40:18;29.57;;;15.27;;
20758;SDS011;10539;53.686;9.158;2023-04-08T05:42:44;29.43;;;14.43;;
20758;SDS011;10539;53.686;9.158;2023-04-08T05:45:10;32.97;;;14.43;;
20758;SDS011;10539;53.686;9.158;2023-04-08T05:47:36;31.97;;;15.30;;
20758;SDS011;10539;53.686;9.158;2023-04-08T05:50:02;31.70;;;14.73;;
20758;SDS011;10539;53.686;9.158;2023-04-08T05:52:27;28.97;;;14.07;;
20758;SDS011;10539;53.686;9.158;2023-04-08T05:54:53;32.53;;;14.40;;
20758;SDS011;10539;53.686;9.158;2023-04-08T05:57:19;27.63;;;13.80;;
20758;SDS011;10539;53.686;9.158;2023-04-08T05:59:45;30.97;;;14.10;;
20758;SDS011;10539;53.686;9.158;2023-04-08T06:02:10;30.57;;;15.60;;
20758;SDS011;10539;53.686;9.158;2023-04-08T06:04:36;34.97;;;16.80;;
20758;SDS011;10539;53.686;9.158;2023-04-08T06:07:02;32.13;;;15.30;;
20758;SDS011;10539;53.686;9.158;2023-04-08T06:09:29;28.70;;;14.10;;
20758;SDS011;10539;53.686;9.158;2023-04-08T06:11:58;36.50;;;17.10;;
20758;SDS011;10539;53.686;9.158;2023-04-08T06:14:24;36.47;;;18.43;;
20758;SDS011;10539;53.686;9.158;2023-04-08T06:16:50;31.13;;;14.67;;
20758;SDS011;10539;53.686;9.158;2023-04-08T06:19:17;37.27;;;17.70;;
20758;SDS011;10539;53.686;9.158;2023-04-08T06:21:43;28.87;;;14.60;;
20758;SDS011;10539;53.686;9.158;2023-04-08T06:24:08;32.70;;;15.87;;
20758;SDS011;10539;53.686;9.158;2023-04-08T06:26:34;39.17;;;17.57;;
20758;SDS011;10539;53.686;9.158;2023-04-08T06:29:00;39.03;;;17.63;;
20758;SDS011;10539;53.686;9.158;2023-04-08T06:31:26;36.23;;;19.07;;
20758;SDS011;10539;53.686;9.158;2023-04-08T06:33:52;37.37;;;17.83;;
20758;SDS011;10539;53.686;9.158;2023-04-08T06:36:19;33.97;;;16.53;;
20758;SDS011;10539;53.686;9.158;2023-04-08T06:38:45;40.07;;;17.53;;
20758;SDS011;10539;53.686;9.158;2023-04-08T06:41:11;37.67;;;18.80;;
20758;SDS011;10539;53.686;9.158;2023-04-08T06:43:37;34.90;;;17.43;;
20758;SDS011;10539;53.686;9.158;2023-04-08T06:46:03;41.83;;;17.70;;
20758;SDS011;10539;53.686;9.158;2023-04-08T06:48:28;29.77;;;13.47;;
20758;SDS011;10539;53.686;9.158;2023-04-08T06:50:58;35.93;;;16.93;;
20758;SDS011;10539;53.686;9.158;2023-04-08T06:53:24;31.43;;;14.50;;
20758;SDS011;10539;53.686;9.158;2023-04-08T06:55:53;32.67;;;16.10;;
20758;SDS011;10539;53.686;9.158;2023-04-08T06:58:19;35.23;;;15.53;;
20758;SDS011;10539;53.686;9.158;2023-04-08T07:00:45;33.63;;;15.43;;
20758;SDS011;10539;53.686;9.158;2023-04-08T07:03:11;30.57;;;13.90;;
20758;SDS011;10539;53.686;9.158;2023-04-08T07:05:37;30.37;;;14.27;;
20758;SDS011;10539;53.686;9.158;2023-04-08T07:08:04;28.80;;;15.50;;
20758;SDS011;10539;53.686;9.158;2023-04-08T07:10:30;29.67;;;13.37;;
20758;SDS011;10539;53.686;9.158;2023-04-08T07:12:56;26.50;;;13.50;;
20758;SDS011;10539;53.686;9.158;2023-04-08T07:15:22;28.63;;;13.27;;
20758;SDS011;10539;53.686;9.158;2023-04-08T07:17:48;27.37;;;11.57;;
20758;SDS011;10539;53.686;9.158;2023-04-08T07:20:13;23.90;;;10.53;;
20758;SDS011;10539;53.686;9.158;2023-04-08T07:22:39;25.97;;;13.20;;
20758;SDS011;10539;53.686;9.158;2023-04-08T07:25:05;26.90;;;12.20;;
20758;SDS011;10539;53.686;9.158;2023-04-08T07:27:34;33.40;;;13.27;;
20758;SDS011;10539;53.686;9.158;2023-04-08T07:30:00;26.23;;;12.60;;
20758;SDS011;10539;53.686;9.158;2023-04-08T07:32:27;29.57;;;14.30;;
20758;SDS011;10539;53.686;9.158;2023-04-08T07:34:52;31.53;;;14.20;;
20758;SDS011;10539;53.686;9.158;2023-04-08T07:37:18;27.10;;;13.00;;
20758;SDS011;10539;53.686;9.158;2023-04-08T07:39:44;33.07;;;15.30;;
20758;SDS011;10539;53.686;9.158;2023-04-08T07:42:10;25.17;;;11.70;;
20758;SDS011;10539;53.686;9.158;2023-04-08T07:44:36;26.60;;;13.10;;
20758;SDS011;10539;53.686;9.158;2023-04-08T07:47:03;30.00;;;14.40;;
20758;SDS011;10539;53.686;9.158;2023-04-08T07:49:29;31.87;;;14.47;;
20758;SDS011;10539;53.686;9.158;2023-04-08T07:51:54;35.67;;;14.37;;
20758;SDS011;10539;53.686;9.158;2023-04-08T07:54:21;31.33;;;13.67;;
20758;SDS011;10539;53.686;9.158;2023-04-08T07:56:47;33.23;;;14.53;;
20758;SDS011;10539;53.686;9.158;2023-04-08T07:59:13;32.30;;;14.40;;
20758;SDS011;10539;53.686;9.158;2023-04-08T08:01:38;29.80;;;14.87;;
20758;SDS011;10539;53.686;9.158;2023-04-08T08:04:04;31.50;;;13.57;;
20758;SDS011;10539;53.686;9.158;2023-04-08T08:06:30;29.77;;;14.33;;
20758;SDS011;10539;53.686;9.158;2023-04-08T08:08:59;28.13;;;11.30;;
20758;SDS011;10539;53.686;9.158;2023-04-08T08:11:25;23.00;;;10.13;;
20758;SDS011;10539;53.686;9.158;2023-04-08T08:13:52;28.10;;;14.00;;
20758;SDS011;10539;53.686;9.158;2023-04-08T08:16:18;26.33;;;12.03;;
20758;SDS011;10539;53.686;9.158;2023-04-08T08:18:44;22.83;;;10.47;;
20758;SDS011;10539;53.686;9.158;2023-04-08T08:21:10;22.73;;;10.80;;
20758;SDS011;10539;53.686;9.158;2023-04-08T08:23:36;32.33;;;12.50;;
20758;SDS011;10539;53.686;9.158;2023-04-08T08:26:02;22.77;;;11.63;;
20758;SDS011;10539;53.686;9.158;2023-04-08T08:28:30;23.30;;;11.83;;
20758;SDS011;10539;53.686;9.158;2023-04-08T08:30:57;27.03;;;11.97;;
20758;SDS011;10539;53.686;9.158;2023-04-08T08:33:23;23.53;;;11.00;;
20758;SDS011;10539;53.686;9.158;2023-04-08T08:35:50;25.00;;;13.13;;
20758;SDS011;10539;53.686;9.158;2023-04-08T08:38:16;24.03;;;13.33;;
20758;SDS011;10539;53.686;9.158;2023-04-08T08:40:42;26.63;;;12.37;;
20758;SDS011;10539;53.686;9.158;2023-04-08T08:43:09;29.57;;;14.37;;
20758;SDS011;10539;53.686;9.158;2023-04-08T08:45:39;28.57;;;12.80;;
20758;SDS011;10539;53.686;9.158;2023-04-08T08:48:06;28.60;;;13.73;;
20758;SDS011;10539;53.686;9.158;2023-04-08T08:50:35;30.83;;;13.00;;
20758;SDS011;10539;53.686;9.158;2023-04-08T08:53:01;31.27;;;13.80;;
20758;SDS011;10539;53.686;9.158;2023-04-08T08:55:29;30.20;;;13.43;;
20758;SDS011;10539;53.686;9.158;2023-04-08T08:57:59;25.47;;;9.33;;
20758;SDS011;10539;53.686;9.158;2023-04-08T09:00:34;19.90;;;8.53;;
20758;SDS011;10539;53.686;9.158;2023-04-08T09:03:18;30.17;;;15.23;;
20758;SDS011;10539;53.686;9.158;2023-04-08T09:05:46;27.73;;;13.13;;
20758;SDS011;10539;53.686;9.158;2023-04-08T09:10:50;25.00;;;11.07;;
20758;SDS011;10539;53.686;9.158;2023-04-08T09:13:16;26.90;;;11.37;;
20758;SDS011;10539;53.686;9.158;2023-04-08T09:16:15;32.60;;;14.03;;
20758;SDS011;10539;53.686;9.158;2023-04-08T09:18:35;28.07;;;12.77;;
20758;SDS011;10539;53.686;9.158;2023-04-08T09:21:02;31.33;;;14.33;;
20758;SDS011;10539;53.686;9.158;2023-04-08T09:23:50;35.90;;;15.90;;
20758;SDS011;10539;53.686;9.158;2023-04-08T09:26:16;25.60;;;11.70;;
20758;SDS011;10539;53.686;9.158;2023-04-08T09:31:29;25.67;;;10.73;;
20758;SDS011;10539;53.686;9.158;2023-04-08T09:33:57;27.17;;;12.10;;
20758;SDS011;10539;53.686;9.158;2023-04-08T09:36:25;23.83;;;12.07;;
20758;SDS011;10539;53.686;9.158;2023-04-08T09:38:51;29.60;;;13.23;;
20758;SDS011;10539;53.686;9.158;2023-04-08T09:41:19;31.13;;;14.20;;
20758;SDS011;10539;53.686;9.158;2023-04-08T09:43:52;25.80;;;11.93;;
20758;SDS011;10539;53.686;9.158;2023-04-08T09:46:24;26.53;;;11.77;;
20758;SDS011;10539;53.686;9.158;2023-04-08T09:48:57;33.40;;;13.53;;
20758;SDS011;10539;53.686;9.158;2023-04-08T09:51:31;31.93;;;14.00;;
20758;SDS011;10539;53.686;9.158;2023-04-08T09:54:02;29.90;;;13.97;;
20758;SDS011;10539;53.686;9.158;2023-04-08T09:56:34;31.97;;;14.70;;
20758;SDS011;10539;53.686;9.158;2023-04-08T09:59:15;29.20;;;12.43;;
20758;SDS011;10539;53.686;9.158;2023-04-08T10:01:49;33.03;;;15.70;;
20758;SDS011;10539;53.686;9.158;2023-04-08T10:04:19;32.33;;;13.93;;
20758;SDS011;10539;53.686;9.158;2023-04-08T10:06:59;31.60;;;14.23;;
20758;SDS011;10539;53.686;9.158;2023-04-08T10:09:28;29.90;;;14.83;;
20758;SDS011;10539;53.686;9.158;2023-04-08T10:11:55;34.03;;;14.80;;
20758;SDS011;10539;53.686;9.158;2023-04-08T10:14:20;30.70;;;14.70;;
20758;SDS011;10539;53.686;9.158;2023-04-08T10:16:46;31.07;;;15.40;;
20758;SDS011;10539;53.686;9.158;2023-04-08T10:19:57;29.83;;;14.70;;
20758;SDS011;10539;53.686;9.158;2023-04-08T10:22:02;33.43;;;15.67;;
20758;SDS011;10539;53.686;9.158;2023-04-08T10:24:29;34.47;;;15.40;;
20758;SDS011;10539;53.686;9.158;2023-04-08T10:26:55;29.53;;;15.17;;
20758;SDS011;10539;53.686;9.158;2023-04-08T10:29:29;26.33;;;13.70;;
20758;SDS011;10539;53.686;9.158;2023-04-08T10:31:55;32.23;;;14.13;;
20758;SDS011;10539;53.686;9.158;2023-04-08T10:34:25;31.33;;;13.50;;
20758;SDS011;10539;53.686;9.158;2023-04-08T10:36:52;29.73;;;14.20;;
20758;SDS011;10539;53.686;9.158;2023-04-08T10:39:20;32.47;;;15.03;;
20758;SDS011;10539;53.686;9.158;2023-04-08T10:41:47;31.13;;;15.07;;
20758;SDS011;10539;53.686;9.158;2023-04-08T10:44:21;33.43;;;15.47;;
20758;SDS011;10539;53.686;9.158;2023-04-08T10:46:51;28.27;;;14.17;;
20758;SDS011;10539;53.686;9.158;2023-04-08T10:49:17;32.23;;;13.80;;
20758;SDS011;10539;53.686;9.158;2023-04-08T10:51:44;26.83;;;12.03;;
20758;SDS011;10539;53.686;9.158;2023-04-08T10:54:11;27.13;;;13.83;;
20758;SDS011;10539;53.686;9.158;2023-04-08T10:56:51;23.67;;;12.70;;
20758;SDS011;10539;53.686;9.158;2023-04-08T10:59:30;36.73;;;16.93;;
20758;SDS011;10539;53.686;9.158;2023-04-08T11:01:57;34.07;;;15.93;;
20758;SDS011;10539;53.686;9.158;2023-04-08T11:04:23;34.53;;;15.67;;
20758;SDS011;10539;53.686;9.158;2023-04-08T11:06:49;37.30;;;18.57;;
20758;SDS011;10539;53.686;9.158;2023-04-08T11:09:16;33.70;;;17.77;;
20758;SDS011;10539;53.686;9.158;2023-04-08T11:11:43;34.57;;;16.87;;
20758;SDS011;10539;53.686;9.158;2023-04-08T11:14:10;33.53;;;16.63;;
20758;SDS011;10539;53.686;9.158;2023-04-08T11:16:36;34.03;;;16.90;;
20758;SDS011;10539;53.686;9.158;2023-04-08T11:19:03;29.00;;;14.50;;
20758;SDS011;10539;53.686;9.158;2023-04-08T11:21:30;31.20;;;15.03;;
20758;SDS011;10539;53.686;9.158;2023-04-08T11:23:59;33.83;;;16.67;;
20758;SDS011;10539;53.686;9.158;2023-04-08T11:26:25;31.20;;;15.57;;
20758;SDS011;10539;53.686;9.158;2023-04-08T11:28:51;30.10;;;14.93;;
20758;SDS011;10539;53.686;9.158;2023-04-08T11:31:19;31.00;;;17.47;;
20758;SDS011;10539;53.686;9.158;2023-04-08T11:33:46;26.90;;;13.73;;
20758;SDS011;10539;53.686;9.158;2023-04-08T11:36:13;31.27;;;15.33;;
20758;SDS011;10539;53.686;9.158;2023-04-08T11:38:42;28.73;;;14.40;;
20758;SDS011;10539;53.686;9.158;2023-04-08T11:41:08;29.83;;;15.03;;
20758;SDS011;10539;53.686;9.158;2023-04-08T11:43:36;27.40;;;13.93;;
20758;SDS011;10539;53.686;9.158;2023-04-08T11:46:09;28.13;;;14.37;;
20758;SDS011;10539;53.686;9.158;2023-04-08T11:48:35;25.57;;;14.27;;
20758;SDS011;10539;53.686;9.158;2023-04-08T11:51:03;30.40;;;13.73;;
20758;SDS011;10539;53.686;9.158;2023-04-08T11:53:36;31.10;;;15.57;;
20758;SDS011;10539;53.686;9.158;2023-04-08T11:56:15;24.77;;;14.30;;
20758;SDS011;10539;53.686;9.158;2023-04-08T11:58:41;29.50;;;13.03;;
20758;SDS011;10539;53.686;9.158;2023-04-08T12:01:07;30.23;;;15.23;;
20758;SDS011;10539;53.686;9.158;2023-04-08T12:03:33;29.00;;;15.10;;
20758;SDS011;10539;53.686;9.158;2023-04-08T12:05:58;27.83;;;14.30;;
20758;SDS011;10539;53.686;9.158;2023-04-08T12:08:24;29.77;;;14.10;;
20758;SDS011;10539;53.686;9.158;2023-04-08T12:10:50;27.93;;;14.57;;
20758;SDS011;10539;53.686;9.158;2023-04-08T12:13:17;24.67;;;12.53;;
20758;SDS011;10539;53.686;9.158;2023-04-08T12:15:42;32.90;;;14.60;;
20758;SDS011;10539;53.686;9.158;2023-04-08T12:18:08;25.13;;;13.60;;
20758;SDS011;10539;53.686;9.158;2023-04-08T12:20:35;27.30;;;14.03;;
20758;SDS011;10539;53.686;9.158;2023-04-08T12:23:01;30.00;;;13.80;;
20758;SDS011;10539;53.686;9.158;2023-04-08T12:25:26;32.03;;;15.97;;
20758;SDS011;10539;53.686;9.158;2023-04-08T12:27:53;26.60;;;13.07;;
20758;SDS011;10539;53.686;9.158;2023-04-08T12:30:19;28.00;;;14.23;;
20758;SDS011;10539;53.686;9.158;2023-04-08T12:32:45;28.27;;;14.93;;
20758;SDS011;10539;53.686;9.158;2023-04-08T12:35:11;25.17;;;13.93;;
20758;SDS011;10539;53.686;9.158;2023-04-08T12:37:37;27.30;;;14.33;;
20758;SDS011;10539;53.686;9.158;2023-04-08T12:40:03;24.27;;;13.10;;
20758;SDS011;10539;53.686;9.158;2023-04-08T12:42:30;26.63;;;14.87;;
20758;SDS011;10539;53.686;9.158;2023-04-08T12:44:55;21.50;;;13.20;;
20758;SDS011;10539;53.686;9.158;2023-04-08T12:47:22;26.43;;;14.30;;
20758;SDS011;10539;53.686;9.158;2023-04-08T12:49:48;22.80;;;13.33;;
20758;SDS011;10539;53.686;9.158;2023-04-08T12:52:13;26.93;;;14.23;;
20758;SDS011;10539;53.686;9.158;2023-04-08T12:54:39;25.40;;;15.10;;
20758;SDS011;10539;53.686;9.158;2023-04-08T12:57:05;24.90;;;13.50;;
20758;SDS011;10539;53.686;9.158;2023-04-08T12:59:31;25.93;;;12.87;;
20758;SDS011;10539;53.686;9.158;2023-04-08T13:01:57;28.90;;;15.13;;
20758;SDS011;10539;53.686;9.158;2023-04-08T13:04:23;25.00;;;13.53;;
20758;SDS011;10539;53.686;9.158;2023-04-08T13:06:49;27.43;;;14.53;;
20758;SDS011;10539;53.686;9.158;2023-04-08T13:09:15;25.67;;;13.47;;
20758;SDS011;10539;53.686;9.158;2023-04-08T13:11:42;26.70;;;15.30;;
20758;SDS011;10539;53.686;9.158;2023-04-08T13:14:08;28.10;;;16.03;;
20758;SDS011;10539;53.686;9.158;2023-04-08T13:16:34;35.10;;;15.73;;
20758;SDS011;10539;53.686;9.158;2023-04-08T13:18:59;29.40;;;14.73;;
20758;SDS011;10539;53.686;9.158;2023-04-08T13:21:25;27.07;;;15.40;;
20758;SDS011;10539;53.686;9.158;2023-04-08T13:23:51;26.80;;;14.90;;
20758;SDS011;10539;53.686;9.158;2023-04-08T13:26:17;28.67;;;15.73;;
20758;SDS011;10539;53.686;9.158;2023-04-08T13:28:43;30.53;;;16.57;;
20758;SDS011;10539;53.686;9.158;2023-04-08T13:31:08;27.17;;;15.43;;
20758;SDS011;10539;53.686;9.158;2023-04-08T13:33:34;27.27;;;15.30;;
20758;SDS011;10539;53.686;9.158;2023-04-08T13:36:00;25.10;;;13.90;;
20758;SDS011;10539;53.686;9.158;2023-04-08T13:38:25;25.70;;;13.30;;
20758;SDS011;10539;53.686;9.158;2023-04-08T13:40:51;27.93;;;15.97;;
20758;SDS011;10539;53.686;9.158;2023-04-08T13:43:17;27.23;;;14.23;;
20758;SDS011;10539;53.686;9.158;2023-04-08T13:45:43;23.87;;;14.67;;
20758;SDS011;10539;53.686;9.158;2023-04-08T13:48:09;25.23;;;14.67;;
20758;SDS011;10539;53.686;9.158;2023-04-08T13:50:34;22.77;;;13.30;;
20758;SDS011;10539;53.686;9.158;2023-04-08T13:53:00;23.07;;;13.57;;
20758;SDS011;10539;53.686;9.158;2023-04-08T13:55:26;23.43;;;12.77;;
20758;SDS011;10539;53.686;9.158;2023-04-08T13:57:52;27.30;;;13.33;;
20758;SDS011;10539;53.686;9.158;2023-04-08T14:00:18;26.47;;;13.27;;
20758;SDS011;10539;53.686;9.158;2023-04-08T14:02:44;25.23;;;13.10;;
20758;SDS011;10539;53.686;9.158;2023-04-08T14:05:10;22.43;;;13.17;;
20758;SDS011;10539;53.686;9.158;2023-04-08T14:07:35;26.80;;;13.97;;
20758;SDS011;10539;53.686;9.158;2023-04-08T14:10:01;21.27;;;12.07;;
20758;SDS011;10539;53.686;9.158;2023-04-08T14:12:28;27.13;;;13.60;;
20758;SDS011;10539;53.686;9.158;2023-04-08T14:14:53;22.90;;;13.83;;
20758;SDS011;10539;53.686;9.158;2023-04-08T14:17:19;24.23;;;13.20;;
20758;SDS011;10539;53.686;9.158;2023-04-08T14:19:45;27.70;;;13.57;;
20758;SDS011;10539;53.686;9.158;2023-04-08T14:22:11;25.93;;;13.87;;
20758;SDS011;10539;53.686;9.158;2023-04-08T14:24:37;24.00;;;13.47;;
20758;SDS011;10539;53.686;9.158;2023-04-08T14:27:02;22.03;;;12.90;;
20758;SDS011;10539;53.686;9.158;2023-04-08T14:29:29;26.43;;;12.77;;
20758;SDS011;10539;53.686;9.158;2023-04-08T14:31:54;26.20;;;12.87;;